Hildale, Utah
Current Conditions -  °F | °C
As of 4:15 AM on Saturday 25 Oct 2014 (Local Time) from KAZC Reporting Station
Clear Clear  
Wind Chill: 38°   Ceiling: Unl
Heat Index: 42°   Visibility: 10mi
Dew Point: 32°   Wind: 6mph
Humidity: 69%   Direction: 140°SE
Pressure: 30.25"   Gusts: NA
Location:  37°N, 112.97°W
Report Text: KAZC 251015Z AUTO 14005KT 10SM CLR 05/00 A3025 RMK AO2 T00530001
Loading
Personal Weather Stations






























Interactive Weather Map
Tropical Storm Tracking
New forecast layout! Learn more

10-Day Weather Forecast

Advertisements
Track Severe Weather on mobile